F/V Fleur Des Vagues — FPEJ — position and weather

sailwx.info

Track history (hours):
 
Tides and Currents Weather Stations Pressure Air Temp Water Temp Dewpoint Dewpoint Depression Visibility Wind Speed Wind Dir Waves Ship Positions

F/V Fleur Des Vagues

Last reported at 2015-May-29 13:34 UTC. Time now 2015-May-29 14:18 UTC.
Position N 46°30' W 001°47'.

Length 16 m.

Type: Fishing. MMSI: 227893000.

Date/timePositionNaut miles runAvg speedWind from/ knotsBaromVisibWave heightAir tempDewpointWater temp
2015-May-29 13:34N 46°30' W 001°47'0 0.0
2015-May-29 12:34N 46°30' W 001°47'0 0.0
2015-May-29 11:34N 46°30' W 001°47'7 7.2
2015-May-29 10:34N 46°23' W 001°46'5 5.1
2015-May-29 09:33N 46°18' W 001°44'2 1.8
2015-May-29 08:33N 46°16' W 001°43'2 1.8
2015-May-29 07:33N 46°18' W 001°45'1 1.0
2015-May-29 06:33N 46°17' W 001°44'2 1.8
2015-May-29 05:33N 46°19' W 001°45'2 1.8
2015-May-29 04:33N 46°17' W 001°44'1 1.0
2015-May-29 03:33N 46°18' W 001°44'0 0.1
2015-May-29 02:34N 46°18' W 001°44'1 1.1
2015-May-29 01:33N 46°17' W 001°43'2 2.1
2015-May-29 00:33N 46°19' W 001°44'8 7.9
2015-May-28 23:34N 46°26' W 001°47'3 3.5
2015-May-28 22:34N 46°30' W 001°47'0 0.0
2015-May-28 21:34N 46°30' W 001°47'0 0.0
2015-May-28 20:33N 46°30' W 001°47'0 0.0
2015-May-28 19:33N 46°30' W 001°47'0 0.0
2015-May-28 18:34N 46°30' W 001°47'0 0.0
2015-May-28 17:34N 46°30' W 001°47'0 0.0
2015-May-28 16:34N 46°30' W 001°47'0 0.0
2015-May-28 15:33N 46°30' W 001°47'0 0.0
2015-May-28 14:34N 46°30' W 001°47'0 0.0
2015-May-28 13:34N 46°30' W 001°47'0 0.0
2015-May-28 12:34N 46°30' W 001°47'0 0.0
2015-May-28 11:33N 46°30' W 001°47'5 5.2
2015-May-28 10:34N 46°25' W 001°46'8 8.1
2015-May-28 09:34N 46°17' W 001°44'2 1.5
2015-May-28 08:34N 46°18' W 001°44'1 0.9
2015-May-28 07:33N 46°19' W 001°46'1 0.7
2015-May-28 06:33N 46°18' W 001°45'1 0.6
2015-May-28 05:33N 46°19' W 001°45'0 0.1
2015-May-28 04:33N 46°19' W 001°45'1 1.5
2015-May-28 03:33N 46°19' W 001°47'1 1.2
2015-May-28 02:33N 46°20' W 001°45'2 1.8
2015-May-28 01:33N 46°19' W 001°48'2 1.9
2015-May-28 00:34N 46°20' W 001°45'7 6.9
2015-May-27 23:33N 46°27' W 001°47'3 3.2
2015-May-27 22:34N 46°30' W 001°47'0 0.0
2015-May-27 21:33N 46°30' W 001°47'0 0.0
2015-May-27 20:33N 46°30' W 001°47'0 0.0
2015-May-27 19:34N 46°30' W 001°47'0 0.0
2015-May-27 18:34N 46°30' W 001°47'0 0.0
2015-May-27 17:34N 46°30' W 001°47'0 0.0
2015-May-27 16:33N 46°30' W 001°47'0 0.0
2015-May-27 15:34N 46°30' W 001°47'0 0.0
2015-May-27 14:34N 46°30' W 001°47'0 0.0
2015-May-27 13:34N 46°30' W 001°47'2 1.6
2015-May-27 12:33N 46°28' W 001°47'9 8.6
2015-May-27 11:33N 46°20' W 001°45'1 0.8
2015-May-27 10:34N 46°19' W 001°45'1 0.9
2015-May-27 09:33N 46°20' W 001°46'2 2.3
2015-May-27 08:33N 46°18' W 001°45'1 1.2
2015-May-27 07:33N 46°16' W 001°44'2 2.1
2015-May-27 06:34N 46°18' W 001°45'2 1.6
2015-May-27 05:33N 46°17' W 001°45'1 0.6
2015-May-27 04:33N 46°17' W 001°44'2 1.8
2015-May-27 03:34N 46°18' W 001°45'1 1.2
2015-May-27 02:33N 46°17' W 001°44'1 0.7
2015-May-27 01:33N 46°17' W 001°43'2 2.1
2015-May-27 00:33N 46°19' W 001°45'8 8.3
2015-May-26 23:34N 46°27' W 001°47'3 3.1
2015-May-26 22:34N 46°30' W 001°47'0 0.0
2015-May-26 21:33N 46°30' W 001°47'0 0.0
2015-May-26 20:33N 46°30' W 001°47'0 0.0
2015-May-26 19:33N 46°30' W 001°47'0 0.0
2015-May-26 18:34N 46°30' W 001°47'0 0.0
2015-May-26 17:33N 46°30' W 001°47'0 0.0
2015-May-26 16:34N 46°30' W 001°47'0 0.0
2015-May-26 15:34N 46°30' W 001°47'0 0.0
2015-May-26 14:34N 46°30' W 001°47'0 0.0
2015-May-26 13:33N 46°30' W 001°47'0 0.0
2015-May-26 12:33N 46°30' W 001°47'6 6.2
2015-May-26 11:34N 46°24' W 001°46'8 7.6
2015-May-26 10:34N 46°16' W 001°44'2 2.5
2015-May-26 09:34N 46°19' W 001°45'3 2.6
2015-May-26 08:34N 46°21' W 001°44'8 7.9
2015-May-26 07:34N 46°29' W 001°47'1 1.1
2015-May-26 06:34N 46°30' W 001°47'  
Track history (hours):
 
Tides and Currents Weather Stations Pressure Air Temp Water Temp Dewpoint Dewpoint Depression Visibility Wind Speed Wind Dir Waves Ship Positions

F/V Fleur Des Vagues

Last reported at 2015-May-29 13:34 UTC. Time now 2015-May-29 14:18 UTC.
Position N 46°30' W 001°47'.

Length 16 m.

Type: Fishing. MMSI: 227893000.

Date/timePositionNaut miles runAvg speedWind from/ knotsBaromVisibWave heightAir tempDewpointWater temp
2015-May-29 13:34N 46°30' W 001°47'0 0.0
2015-May-29 12:34N 46°30' W 001°47'0 0.0
2015-May-29 11:34N 46°30' W 001°47'7 7.2
2015-May-29 10:34N 46°23' W 001°46'5 5.1
2015-May-29 09:33N 46°18' W 001°44'2 1.8
2015-May-29 08:33N 46°16' W 001°43'2 1.8
2015-May-29 07:33N 46°18' W 001°45'1 1.0
2015-May-29 06:33N 46°17' W 001°44'2 1.8
2015-May-29 05:33N 46°19' W 001°45'2 1.8
2015-May-29 04:33N 46°17' W 001°44'1 1.0
2015-May-29 03:33N 46°18' W 001°44'0 0.1
2015-May-29 02:34N 46°18' W 001°44'1 1.1
2015-May-29 01:33N 46°17' W 001°43'2 2.1
2015-May-29 00:33N 46°19' W 001°44'8 7.9
2015-May-28 23:34N 46°26' W 001°47'3 3.5
2015-May-28 22:34N 46°30' W 001°47'0 0.0
2015-May-28 21:34N 46°30' W 001°47'0 0.0
2015-May-28 20:33N 46°30' W 001°47'0 0.0
2015-May-28 19:33N 46°30' W 001°47'0 0.0
2015-May-28 18:34N 46°30' W 001°47'0 0.0
2015-May-28 17:34N 46°30' W 001°47'0 0.0
2015-May-28 16:34N 46°30' W 001°47'0 0.0
2015-May-28 15:33N 46°30' W 001°47'0 0.0
2015-May-28 14:34N 46°30' W 001°47'0 0.0
2015-May-28 13:34N 46°30' W 001°47'0 0.0
2015-May-28 12:34N 46°30' W 001°47'0 0.0
2015-May-28 11:33N 46°30' W 001°47'5 5.2
2015-May-28 10:34N 46°25' W 001°46'8 8.1
2015-May-28 09:34N 46°17' W 001°44'2 1.5
2015-May-28 08:34N 46°18' W 001°44'1 0.9
2015-May-28 07:33N 46°19' W 001°46'1 0.7
2015-May-28 06:33N 46°18' W 001°45'1 0.6
2015-May-28 05:33N 46°19' W 001°45'0 0.1
2015-May-28 04:33N 46°19' W 001°45'1 1.5
2015-May-28 03:33N 46°19' W 001°47'1 1.2
2015-May-28 02:33N 46°20' W 001°45'2 1.8
2015-May-28 01:33N 46°19' W 001°48'2 1.9
2015-May-28 00:34N 46°20' W 001°45'7 6.9
2015-May-27 23:33N 46°27' W 001°47'3 3.2
2015-May-27 22:34N 46°30' W 001°47'0 0.0
2015-May-27 21:33N 46°30' W 001°47'0 0.0
2015-May-27 20:33N 46°30' W 001°47'0 0.0
2015-May-27 19:34N 46°30' W 001°47'0 0.0
2015-May-27 18:34N 46°30' W 001°47'0 0.0
2015-May-27 17:34N 46°30' W 001°47'0 0.0
2015-May-27 16:33N 46°30' W 001°47'0 0.0
2015-May-27 15:34N 46°30' W 001°47'0 0.0
2015-May-27 14:34N 46°30' W 001°47'0 0.0
2015-May-27 13:34N 46°30' W 001°47'2 1.6
2015-May-27 12:33N 46°28' W 001°47'9 8.6
2015-May-27 11:33N 46°20' W 001°45'1 0.8
2015-May-27 10:34N 46°19' W 001°45'1 0.9
2015-May-27 09:33N 46°20' W 001°46'2 2.3
2015-May-27 08:33N 46°18' W 001°45'1 1.2
2015-May-27 07:33N 46°16' W 001°44'2 2.1
2015-May-27 06:34N 46°18' W 001°45'2 1.6
2015-May-27 05:33N 46°17' W 001°45'1 0.6
2015-May-27 04:33N 46°17' W 001°44'2 1.8
2015-May-27 03:34N 46°18' W 001°45'1 1.2
2015-May-27 02:33N 46°17' W 001°44'1 0.7
2015-May-27 01:33N 46°17' W 001°43'2 2.1
2015-May-27 00:33N 46°19' W 001°45'8 8.3
2015-May-26 23:34N 46°27' W 001°47'3 3.1
2015-May-26 22:34N 46°30' W 001°47'0 0.0
2015-May-26 21:33N 46°30' W 001°47'0 0.0
2015-May-26 20:33N 46°30' W 001°47'0 0.0
2015-May-26 19:33N 46°30' W 001°47'0 0.0
2015-May-26 18:34N 46°30' W 001°47'0 0.0
2015-May-26 17:33N 46°30' W 001°47'0 0.0
2015-May-26 16:34N 46°30' W 001°47'0 0.0
2015-May-26 15:34N 46°30' W 001°47'0 0.0
2015-May-26 14:34N 46°30' W 001°47'0 0.0
2015-May-26 13:33N 46°30' W 001°47'0 0.0
2015-May-26 12:33N 46°30' W 001°47'6 6.2
2015-May-26 11:34N 46°24' W 001°46'8 7.6
2015-May-26 10:34N 46°16' W 001°44'2 2.5
2015-May-26 09:34N 46°19' W 001°45'3 2.6
2015-May-26 08:34N 46°21' W 001°44'8 7.9
2015-May-26 07:34N 46°29' W 001°47'1 1.1
2015-May-26 06:34N 46°30' W 001°47'  

Dump ship's entire track history